createdAt,value
2023-05-02T00:00:09.619Z,6.70
2023-05-02T00:02:37.901Z,6.20
2023-05-02T00:05:06.844Z,6.40
2023-05-02T00:07:34.928Z,6.33
2023-05-02T00:10:03.429Z,6.50
2023-05-02T00:12:33.925Z,7.07
2023-05-02T00:15:02.091Z,6.83
2023-05-02T00:17:30.208Z,6.53
2023-05-02T00:19:58.453Z,5.97
2023-05-02T00:22:26.603Z,6.60
2023-05-02T00:24:58.291Z,6.60
2023-05-02T00:27:26.615Z,5.90
2023-05-02T00:29:56.156Z,6.17
2023-05-02T00:32:24.286Z,6.20
2023-05-02T00:34:52.285Z,7.13
2023-05-02T00:37:20.745Z,5.30
2023-05-02T00:39:48.698Z,6.30
2023-05-02T00:42:16.728Z,6.40
2023-05-02T00:44:44.661Z,5.40
2023-05-02T00:47:15.344Z,6.00
2023-05-02T00:49:43.338Z,6.23
2023-05-02T00:52:11.274Z,6.13
2023-05-02T00:54:40.292Z,5.60
2023-05-02T00:57:08.298Z,5.80
2023-05-02T00:59:37.103Z,6.17
2023-05-02T01:02:21.668Z,6.50
2023-05-02T01:04:59.602Z,6.23
2023-05-02T01:07:43.929Z,6.17
2023-05-02T01:10:20.650Z,5.90
2023-05-02T01:12:55.498Z,6.83
2023-05-02T01:15:24.350Z,5.90
2023-05-02T01:17:56.201Z,6.03
2023-05-02T01:20:27.745Z,6.87
2023-05-02T01:23:01.483Z,6.37
2023-05-02T01:25:38.242Z,7.10
2023-05-02T01:28:17.656Z,6.50
2023-05-02T01:30:49.745Z,6.87
2023-05-02T01:33:19.563Z,6.80
2023-05-02T01:35:50.736Z,6.00
2023-05-02T01:38:20.968Z,6.63
2023-05-02T01:40:52.477Z,6.50
2023-05-02T01:43:22.174Z,6.63
2023-05-02T01:45:53.678Z,7.17
2023-05-02T01:48:22.988Z,7.03
2023-05-02T01:50:53.259Z,6.80
2023-05-02T01:53:22.470Z,8.17
2023-05-02T01:55:51.749Z,6.97
2023-05-02T01:58:22.018Z,5.93
2023-05-02T02:00:52.589Z,7.10
2023-05-02T02:03:22.678Z,6.60
2023-05-02T02:05:53.289Z,6.90
2023-05-02T02:08:21.263Z,7.37
2023-05-02T02:10:58.441Z,7.23
2023-05-02T02:13:31.403Z,9.17
2023-05-02T02:16:02.576Z,6.90
2023-05-02T02:18:33.543Z,7.60
2023-05-02T02:21:01.955Z,7.20
2023-05-02T02:23:32.262Z,8.07
2023-05-02T02:26:02.321Z,7.33
2023-05-02T02:28:30.529Z,9.20
2023-05-02T02:30:59.897Z,8.43
2023-05-02T02:33:32.152Z,7.87
2023-05-02T02:36:08.288Z,7.70
2023-05-02T02:38:43.867Z,8.60
2023-05-02T02:41:17.679Z,8.60
2023-05-02T02:43:54.512Z,8.10
2023-05-02T02:46:34.721Z,8.57
2023-05-02T02:49:16.262Z,8.60
2023-05-02T02:51:51.404Z,7.73
2023-05-02T02:54:27.285Z,9.57
2023-05-02T02:57:03.201Z,7.70
2023-05-02T02:59:34.912Z,8.23
2023-05-02T03:02:08.412Z,8.60
2023-05-02T03:04:39.114Z,7.97
2023-05-02T03:07:07.171Z,7.57
2023-05-02T03:09:44.745Z,7.77
2023-05-02T03:12:12.876Z,8.10
2023-05-02T03:14:41.607Z,8.87
2023-05-02T03:17:10.930Z,8.37
2023-05-02T03:19:38.965Z,8.63
2023-05-02T03:22:07.311Z,8.60
2023-05-02T03:24:35.342Z,9.00
2023-05-02T03:27:03.459Z,8.63
2023-05-02T03:29:31.376Z,10.47
2023-05-02T03:31:59.594Z,9.50
2023-05-02T03:34:28.941Z,9.00
2023-05-02T03:36:56.945Z,9.53
2023-05-02T03:39:24.919Z,9.60
2023-05-02T03:41:53.458Z,8.47
2023-05-02T03:44:21.472Z,8.90
2023-05-02T03:46:49.417Z,9.23
2023-05-02T03:49:19.441Z,10.10
2023-05-02T03:51:48.745Z,10.57
2023-05-02T03:54:16.719Z,11.07
2023-05-02T03:56:45.002Z,9.60
2023-05-02T03:59:12.993Z,9.50
2023-05-02T04:01:41.132Z,9.60
2023-05-02T04:04:09.882Z,10.90
2023-05-02T04:06:38.290Z,11.60
2023-05-02T04:09:07.860Z,10.30
2023-05-02T04:11:35.976Z,10.90
2023-05-02T04:14:04.358Z,9.97
2023-05-02T04:16:34.876Z,10.80
2023-05-02T04:19:02.917Z,9.63
2023-05-02T04:21:31.562Z,11.10
2023-05-02T04:23:59.869Z,10.63
2023-05-02T04:26:29.522Z,11.13
2023-05-02T04:28:57.486Z,11.20
2023-05-02T04:31:25.608Z,10.63
2023-05-02T04:33:53.917Z,10.27
2023-05-02T04:36:22.115Z,9.63
2023-05-02T04:38:50.078Z,10.67
2023-05-02T04:41:18.258Z,10.50
2023-05-02T04:43:47.604Z,9.97
2023-05-02T04:46:15.917Z,9.40
2023-05-02T04:48:43.896Z,10.20
2023-05-02T04:51:14.818Z,10.10
2023-05-02T04:53:44.357Z,11.73
2023-05-02T04:56:12.343Z,9.40
2023-05-02T04:58:40.625Z,11.10
2023-05-02T05:01:10.275Z,11.67
2023-05-02T05:03:38.358Z,14.40
2023-05-02T05:06:06.728Z,14.77
2023-05-02T05:08:34.750Z,13.13
2023-05-02T05:11:03.995Z,12.67
2023-05-02T05:13:32.003Z,15.13
2023-05-02T05:16:00.114Z,14.00
2023-05-02T05:18:29.449Z,14.30
2023-05-02T05:20:57.433Z,13.10
2023-05-02T05:23:25.536Z,11.30
2023-05-02T05:25:53.591Z,12.00
2023-05-02T05:28:21.710Z,9.97
2023-05-02T05:30:49.857Z,10.80
2023-05-02T05:33:18.083Z,10.60
2023-05-02T05:35:47.477Z,11.03
2023-05-02T05:38:15.432Z,10.27
2023-05-02T05:40:43.647Z,9.70
2023-05-02T05:43:11.674Z,10.37
2023-05-02T05:45:39.722Z,9.00
2023-05-02T05:48:08.156Z,9.07
2023-05-02T05:50:36.106Z,10.80
2023-05-02T05:53:05.464Z,9.40
2023-05-02T05:55:34.544Z,10.60
2023-05-02T05:58:03.541Z,10.83
2023-05-02T06:00:32.176Z,9.63
2023-05-02T06:03:00.211Z,9.10
2023-05-02T06:05:28.493Z,10.13
2023-05-02T06:07:57.295Z,10.87
2023-05-02T06:10:27.091Z,9.60
2023-05-02T06:12:55.034Z,10.57
2023-05-02T06:15:23.073Z,9.67
2023-05-02T06:17:52.144Z,9.97
2023-05-02T06:20:20.571Z,9.47
2023-05-02T06:22:48.522Z,9.53
2023-05-02T06:25:16.627Z,10.10
2023-05-02T06:27:45.959Z,9.23
2023-05-02T06:30:14.602Z,9.40
2023-05-02T06:32:44.078Z,10.17
2023-05-02T06:35:12.360Z,9.37
2023-05-02T06:37:40.338Z,10.73
2023-05-02T06:40:10.098Z,9.30
2023-05-02T06:42:38.040Z,9.33
2023-05-02T06:45:08.677Z,9.77
2023-05-02T06:47:36.628Z,7.90
2023-05-02T06:50:04.872Z,10.37
2023-05-02T06:52:33.045Z,9.40
2023-05-02T06:55:01.060Z,8.60
2023-05-02T06:57:29.041Z,9.43
2023-05-02T06:59:57.015Z,9.97
2023-05-02T07:02:26.702Z,8.90
2023-05-02T07:04:54.701Z,9.20
2023-05-02T07:07:22.760Z,8.50
2023-05-02T07:09:50.742Z,8.90
2023-05-02T07:12:18.685Z,9.70
2023-05-02T07:14:47.300Z,10.60
2023-05-02T07:17:15.761Z,10.07
2023-05-02T07:19:58.364Z,10.90
2023-05-02T07:22:26.421Z,9.00
2023-05-02T07:24:59.479Z,11.70
2023-05-02T07:27:27.672Z,9.97
2023-05-02T07:29:55.691Z,8.60
2023-05-02T07:32:24.984Z,9.10
2023-05-02T07:34:56.105Z,9.10
2023-05-02T07:37:24.281Z,9.40
2023-05-02T07:39:52.309Z,9.90
2023-05-02T07:42:20.498Z,8.83
2023-05-02T07:44:48.514Z,10.40
2023-05-02T07:47:16.483Z,9.17
2023-05-02T07:49:44.434Z,8.00
2023-05-02T07:52:13.880Z,8.80
2023-05-02T07:54:42.240Z,7.77
2023-05-02T07:57:10.197Z,8.67
2023-05-02T07:59:38.231Z,9.10
2023-05-02T08:02:06.290Z,7.57
2023-05-02T08:04:34.456Z,6.90
2023-05-02T08:07:02.976Z,7.60
2023-05-02T08:09:32.527Z,6.70
2023-05-02T08:12:02.548Z,6.23
2023-05-02T08:14:30.616Z,6.70
2023-05-02T08:16:58.685Z,7.30
2023-05-02T08:19:26.675Z,6.20
2023-05-02T08:21:55.225Z,7.30
2023-05-02T08:24:23.469Z,6.90
2023-05-02T08:26:52.833Z,6.70
2023-05-02T08:29:20.788Z,5.90
2023-05-02T08:31:48.779Z,5.83
2023-05-02T08:34:16.959Z,5.97
2023-05-02T08:36:44.981Z,6.90
2023-05-02T08:39:12.988Z,5.87
2023-05-02T08:41:41.128Z,6.30
2023-05-02T08:44:10.484Z,6.20
2023-05-02T08:46:42.880Z,5.70
2023-05-02T08:49:12.883Z,5.93
2023-05-02T08:51:42.384Z,5.77
2023-05-02T08:54:11.393Z,6.27
2023-05-02T08:56:39.711Z,6.23
2023-05-02T08:59:08.710Z,6.00
2023-05-02T09:01:39.529Z,5.87
2023-05-02T09:04:07.722Z,5.83
2023-05-02T09:06:37.477Z,6.33
2023-05-02T09:09:05.465Z,5.60
2023-05-02T09:11:33.543Z,5.60
2023-05-02T09:14:04.133Z,5.27
2023-05-02T09:16:41.052Z,5.20
2023-05-02T09:19:09.261Z,5.37
2023-05-02T09:21:39.898Z,5.20
2023-05-02T09:24:18.049Z,5.80
2023-05-02T09:26:58.539Z,5.50
2023-05-02T09:29:28.148Z,5.13
2023-05-02T09:31:57.732Z,5.20
2023-05-02T09:34:25.819Z,5.57
2023-05-02T09:36:54.949Z,5.10
2023-05-02T09:39:25.875Z,5.17
2023-05-02T09:41:54.789Z,5.13
2023-05-02T09:44:24.726Z,5.83
2023-05-02T09:46:53.771Z,4.87
2023-05-02T09:49:40.662Z,6.47
2023-05-02T09:52:12.920Z,5.90
2023-05-02T09:54:41.077Z,6.00
2023-05-02T09:57:10.642Z,6.20
2023-05-02T09:59:40.030Z,5.00
2023-05-02T10:02:11.124Z,6.60
2023-05-02T10:04:41.824Z,5.80
2023-05-02T10:07:11.496Z,5.47
2023-05-02T10:09:44.492Z,5.70
2023-05-02T10:12:16.606Z,5.90
2023-05-02T10:14:50.239Z,6.33
2023-05-02T10:17:24.197Z,6.33
2023-05-02T10:19:57.878Z,5.90
2023-05-02T10:22:26.921Z,5.70
2023-05-02T10:24:55.934Z,6.07
2023-05-02T10:27:23.965Z,6.43
2023-05-02T10:29:53.068Z,6.47
2023-05-02T10:32:22.576Z,6.00
2023-05-02T10:34:53.708Z,6.07
2023-05-02T10:37:21.884Z,6.57
2023-05-02T10:39:50.897Z,6.43
2023-05-02T10:42:21.056Z,5.50
2023-05-02T10:44:50.466Z,5.43
2023-05-02T10:47:22.496Z,6.80
2023-05-02T10:49:56.032Z,5.73
2023-05-02T10:52:29.059Z,6.13
2023-05-02T10:55:17.164Z,5.27
2023-05-02T10:58:23.253Z,6.40
2023-05-02T11:00:51.476Z,5.77
2023-05-02T11:03:52.977Z,6.77
2023-05-02T11:06:22.732Z,5.97
2023-05-02T11:08:50.906Z,6.17
2023-05-02T11:11:42.323Z,5.97
2023-05-02T11:14:11.175Z,6.40
2023-05-02T11:17:09.754Z,5.73
2023-05-02T11:20:29.150Z,5.97
2023-05-02T11:23:00.770Z,6.40
2023-05-02T11:25:37.020Z,6.40
2023-05-02T11:28:08.017Z,6.57
2023-05-02T11:30:44.732Z,6.53
2023-05-02T11:33:17.116Z,7.23
2023-05-02T11:35:49.362Z,6.67
2023-05-02T11:38:22.045Z,7.30
2023-05-02T11:40:54.824Z,7.73
2023-05-02T11:43:25.055Z,6.27
2023-05-02T11:45:54.221Z,6.90
2023-05-02T11:48:23.372Z,6.77
2023-05-02T11:50:53.857Z,7.23
2023-05-02T11:53:24.561Z,7.33
2023-05-02T11:55:54.045Z,7.10
2023-05-02T11:58:24.077Z,7.13
2023-05-02T12:00:53.374Z,7.80
2023-05-02T12:03:29.564Z,7.80
2023-05-02T12:05:59.167Z,6.70
2023-05-02T12:08:29.837Z,6.73
2023-05-02T12:10:58.410Z,6.97
2023-05-02T12:13:27.700Z,6.70
2023-05-02T12:15:56.561Z,6.27
2023-05-02T12:18:27.025Z,6.17
2023-05-02T12:20:56.765Z,6.93
2023-05-02T12:23:26.917Z,7.30
2023-05-02T12:25:56.528Z,6.83
2023-05-02T12:28:24.852Z,6.73
2023-05-02T12:30:53.057Z,7.53
2023-05-02T12:33:21.285Z,6.70
2023-05-02T12:35:49.465Z,7.80
2023-05-02T12:38:20.275Z,7.50
2023-05-02T12:40:50.585Z,8.17
2023-05-02T12:43:20.469Z,8.20
2023-05-02T12:45:49.536Z,8.17
2023-05-02T12:48:25.543Z,6.87
2023-05-02T12:50:54.672Z,8.87
2023-05-02T12:53:43.179Z,7.50
2023-05-02T12:56:11.845Z,7.80
2023-05-02T12:58:45.725Z,7.43
2023-05-02T13:01:14.446Z,7.40
2023-05-02T13:03:43.176Z,8.43
2023-05-02T13:06:11.595Z,7.27
2023-05-02T13:08:39.587Z,7.13
2023-05-02T13:11:07.600Z,7.30
2023-05-02T13:13:35.691Z,7.30
2023-05-02T13:16:05.275Z,8.03
2023-05-02T13:21:01.406Z,8.40
2023-05-02T13:23:29.350Z,9.60
2023-05-02T13:25:57.529Z,9.00
2023-05-02T13:28:25.860Z,8.67
2023-05-02T13:30:53.958Z,9.90
2023-05-02T13:33:23.277Z,9.47
2023-05-02T13:35:51.442Z,9.50
2023-05-02T13:38:19.429Z,8.80
2023-05-02T13:40:47.442Z,7.60
2023-05-02T13:43:15.631Z,8.90
2023-05-02T13:45:43.816Z,9.37
2023-05-02T13:48:12.260Z,9.57
2023-05-02T13:50:41.673Z,9.80
2023-05-02T13:53:09.610Z,10.87
2023-05-02T13:55:37.669Z,9.20
2023-05-02T13:58:05.860Z,9.77
2023-05-02T14:00:34.469Z,9.93
2023-05-02T14:03:02.599Z,9.57
2023-05-02T14:05:30.718Z,9.27
2023-05-02T14:08:00.025Z,9.17
2023-05-02T14:10:27.982Z,8.73
2023-05-02T14:12:56.266Z,9.90
2023-05-02T14:15:24.227Z,9.07
2023-05-02T14:17:52.208Z,8.70
2023-05-02T14:20:20.389Z,10.00
2023-05-02T14:22:48.341Z,9.43
2023-05-02T14:25:19.696Z,8.90
2023-05-02T14:27:47.825Z,9.10
2023-05-02T14:30:15.977Z,9.77
2023-05-02T14:32:43.955Z,8.83
2023-05-02T14:35:12.179Z,8.57
2023-05-02T14:37:40.331Z,8.40
2023-05-02T14:40:09.571Z,9.33
2023-05-02T14:42:39.037Z,8.23
2023-05-02T14:45:08.184Z,8.60
2023-05-02T14:47:36.379Z,7.77
2023-05-02T14:50:05.459Z,7.73
2023-05-02T14:52:33.682Z,7.70
2023-05-02T14:55:01.754Z,6.43
2023-05-02T14:57:29.697Z,7.40
2023-05-02T14:59:59.022Z,6.63
2023-05-02T15:02:28.327Z,7.47
2023-05-02T15:04:56.406Z,7.77
2023-05-02T15:07:24.487Z,6.37
2023-05-02T15:09:52.456Z,7.37
2023-05-02T15:12:20.401Z,7.40
2023-05-02T15:14:48.364Z,7.67
2023-05-02T15:17:18.128Z,7.63
2023-05-02T15:19:46.213Z,8.00
2023-05-02T15:22:15.822Z,6.80
2023-05-02T15:24:43.737Z,6.97
2023-05-02T15:27:11.963Z,7.00
2023-05-02T15:29:40.028Z,6.67
2023-05-02T15:32:08.416Z,7.50
2023-05-02T15:34:37.989Z,6.30
2023-05-02T15:37:06.263Z,6.90
2023-05-02T15:39:34.200Z,8.30
2023-05-02T15:42:04.766Z,7.30
2023-05-02T15:44:37.184Z,7.00
2023-05-02T15:47:05.603Z,6.53
2023-05-02T15:49:35.183Z,6.40
2023-05-02T15:52:05.993Z,17.20
2023-05-02T15:54:34.193Z,9.87
2023-05-02T15:57:04.609Z,8.43
2023-05-02T15:59:32.621Z,8.10
2023-05-02T16:02:00.695Z,7.80
2023-05-02T16:04:29.175Z,10.23
2023-05-02T16:06:57.341Z,12.23
2023-05-02T16:09:27.149Z,8.97
2023-05-02T16:11:55.209Z,8.00
2023-05-02T16:14:25.995Z,8.73
2023-05-02T16:16:53.960Z,8.73
2023-05-02T16:19:24.624Z,7.53
2023-05-02T16:21:52.630Z,9.10
2023-05-02T16:24:20.621Z,9.77
2023-05-02T16:26:50.020Z,9.77
2023-05-02T16:29:17.933Z,10.00
2023-05-02T16:31:45.860Z,13.53
2023-05-02T16:34:13.830Z,10.17
2023-05-02T16:36:42.325Z,9.83
2023-05-02T16:39:11.505Z,10.10
2023-05-02T16:41:39.607Z,9.30
2023-05-02T16:44:10.393Z,10.37
2023-05-02T16:46:38.398Z,10.67
2023-05-02T16:49:06.829Z,9.70
2023-05-02T16:51:34.834Z,10.57
2023-05-02T16:54:02.773Z,10.33
2023-05-02T16:56:31.183Z,10.53
2023-05-02T16:58:59.300Z,11.93
2023-05-02T17:01:28.794Z,10.73
2023-05-02T17:03:56.821Z,10.67
2023-05-02T17:06:24.884Z,9.90
2023-05-02T17:08:52.837Z,10.50
2023-05-02T17:11:21.776Z,9.80
2023-05-02T17:13:49.805Z,12.50
2023-05-02T17:16:18.108Z,10.93
2023-05-02T17:18:49.484Z,15.70
2023-05-02T17:21:19.556Z,10.03
2023-05-02T17:23:47.575Z,10.77
2023-05-02T17:26:16.628Z,9.60
2023-05-02T17:28:45.895Z,11.10
2023-05-02T17:31:14.132Z,10.20
2023-05-02T17:33:42.452Z,11.10
2023-05-02T17:36:12.003Z,10.70
2023-05-02T17:38:40.009Z,11.47
2023-05-02T17:41:08.078Z,9.57
2023-05-02T17:43:37.972Z,7.80
2023-05-02T17:46:09.125Z,8.40
2023-05-02T17:48:37.774Z,7.60
2023-05-02T17:51:07.097Z,7.33
2023-05-02T17:53:36.648Z,7.00
2023-05-02T17:56:05.481Z,7.80
2023-05-02T17:58:35.417Z,7.60
2023-05-02T18:01:08.724Z,7.43
2023-05-02T18:03:37.081Z,6.60
2023-05-02T18:06:06.008Z,6.43
2023-05-02T18:08:34.024Z,6.70
2023-05-02T18:11:03.695Z,7.80
2023-05-02T18:13:32.352Z,8.27
2023-05-02T18:16:01.877Z,8.27
2023-05-02T18:18:30.235Z,7.53
2023-05-02T18:20:58.225Z,7.70
2023-05-02T18:23:26.192Z,8.00
2023-05-02T18:25:54.216Z,6.80
2023-05-02T18:28:23.544Z,9.17
2023-05-02T18:30:51.570Z,8.37
2023-05-02T18:33:19.636Z,7.97
2023-05-02T18:35:48.097Z,9.10
2023-05-02T18:38:16.707Z,8.77
2023-05-02T18:40:45.624Z,7.53
2023-05-02T18:43:13.667Z,8.13
2023-05-02T18:45:44.457Z,9.00
2023-05-02T18:48:12.614Z,9.80
2023-05-02T18:50:41.583Z,9.10
2023-05-02T18:53:09.636Z,10.10
2023-05-02T18:55:37.577Z,8.40
2023-05-02T18:58:05.534Z,8.97
2023-05-02T19:00:36.320Z,8.43
2023-05-02T19:03:06.647Z,9.90
2023-05-02T19:05:35.508Z,10.77
2023-05-02T19:08:05.302Z,9.50
2023-05-02T19:10:33.788Z,9.53
2023-05-02T19:13:01.919Z,10.07
2023-05-02T19:15:29.944Z,9.20
2023-05-02T19:17:58.747Z,9.40
2023-05-02T19:20:29.046Z,8.57
2023-05-02T19:23:14.731Z,9.70
2023-05-02T19:25:46.043Z,9.90
2023-05-02T19:28:15.596Z,9.33
2023-05-02T19:30:44.058Z,9.10
2023-05-02T19:33:12.205Z,9.13
2023-05-02T19:35:41.771Z,9.97
2023-05-02T19:38:09.706Z,9.30
2023-05-02T19:40:37.713Z,9.93
2023-05-02T19:43:06.074Z,10.00
2023-05-02T19:45:34.034Z,9.77
2023-05-02T19:48:01.979Z,9.20
2023-05-02T19:50:29.977Z,9.67
2023-05-02T19:52:59.290Z,10.33
2023-05-02T19:55:27.302Z,9.43
2023-05-02T19:57:55.478Z,9.73
2023-05-02T20:00:23.696Z,9.07
2023-05-02T20:02:51.845Z,8.97
2023-05-02T20:05:20.101Z,9.90
2023-05-02T20:07:48.124Z,9.80
2023-05-02T20:10:18.796Z,11.47
2023-05-02T20:12:46.993Z,8.90
2023-05-02T20:15:16.311Z,9.40
2023-05-02T20:17:44.487Z,9.20
2023-05-02T20:20:13.496Z,10.17
2023-05-02T20:22:41.541Z,10.13
2023-05-02T20:25:11.486Z,10.30
2023-05-02T20:27:40.856Z,9.83
2023-05-02T20:30:10.072Z,9.30
2023-05-02T20:32:38.640Z,9.40
2023-05-02T20:35:07.254Z,9.10
2023-05-02T20:37:35.336Z,7.80
2023-05-02T20:40:04.517Z,8.27
2023-05-02T20:42:33.356Z,9.03
2023-05-02T20:45:05.307Z,8.60
2023-05-02T20:47:33.506Z,11.67
2023-05-02T20:50:01.944Z,11.70
2023-05-02T20:52:30.684Z,13.40
2023-05-02T20:55:01.408Z,11.67
2023-05-02T20:57:29.372Z,9.93
2023-05-02T20:59:59.319Z,13.20
2023-05-02T21:02:28.863Z,10.47
2023-05-02T21:04:57.054Z,10.50
2023-05-02T21:07:25.318Z,11.90
2023-05-02T21:09:53.321Z,10.10
2023-05-02T21:12:21.517Z,12.30
2023-05-02T21:14:49.860Z,12.00
2023-05-02T21:17:17.893Z,11.90
2023-05-02T21:19:47.263Z,11.83
2023-05-02T21:22:15.201Z,12.37
2023-05-02T21:24:43.113Z,11.03
2023-05-02T21:27:11.100Z,11.43
2023-05-02T21:29:39.091Z,10.63
2023-05-02T21:32:07.352Z,9.53
2023-05-02T21:34:35.538Z,10.90
2023-05-02T21:37:04.950Z,10.70
2023-05-02T21:39:32.895Z,10.13
2023-05-02T21:42:01.433Z,9.30
2023-05-02T21:44:29.372Z,10.00
2023-05-02T21:46:57.481Z,9.23
2023-05-02T21:49:25.415Z,10.60
2023-05-02T21:51:53.351Z,9.50
2023-05-02T21:54:22.625Z,9.70
2023-05-02T21:56:50.595Z,9.67
2023-05-02T21:59:18.725Z,9.03
2023-05-02T22:01:46.676Z,9.37
2023-05-02T22:04:14.616Z,9.50
2023-05-02T22:06:42.777Z,9.80
2023-05-02T22:09:11.226Z,10.53
2023-05-02T22:11:40.499Z,9.60
2023-05-02T22:14:08.717Z,9.20
2023-05-02T22:16:37.351Z,10.73
2023-05-02T22:19:05.542Z,9.40
2023-05-02T22:21:33.651Z,8.80
2023-05-02T22:24:01.608Z,9.60
2023-05-02T22:26:29.572Z,10.30
2023-05-02T22:28:58.876Z,10.53
2023-05-02T22:31:27.503Z,8.80
2023-05-02T22:33:55.528Z,9.43
2023-05-02T22:36:23.420Z,10.40
2023-05-02T22:38:51.447Z,11.53
2023-05-02T22:41:19.384Z,9.77
2023-05-02T22:43:48.367Z,10.47
2023-05-02T22:46:18.121Z,10.10
2023-05-02T22:48:46.137Z,9.50
2023-05-02T22:51:14.127Z,10.30
2023-05-02T22:53:42.467Z,8.83
2023-05-02T22:56:10.454Z,9.73
2023-05-02T22:58:38.389Z,10.27
2023-05-02T23:01:06.455Z,9.10
2023-05-02T23:03:35.948Z,8.23
2023-05-02T23:06:04.578Z,10.63
2023-05-02T23:08:32.590Z,10.50
2023-05-02T23:11:00.659Z,9.90
2023-05-02T23:13:28.605Z,9.57
2023-05-02T23:15:57.057Z,9.50
2023-05-02T23:18:25.104Z,10.70
2023-05-02T23:20:54.616Z,10.40
2023-05-02T23:23:22.546Z,11.13
2023-05-02T23:25:50.741Z,9.93
2023-05-02T23:28:18.717Z,10.10
2023-05-02T23:30:46.928Z,11.07
2023-05-02T23:33:16.272Z,10.87
2023-05-02T23:35:44.297Z,11.10
2023-05-02T23:38:13.995Z,11.43
2023-05-02T23:40:41.934Z,11.00
2023-05-02T23:43:10.099Z,10.50
2023-05-02T23:45:38.062Z,10.20
2023-05-02T23:48:06.596Z,12.23
2023-05-02T23:50:34.599Z,12.80
2023-05-02T23:53:02.523Z,11.10
2023-05-02T23:55:32.860Z,12.07
2023-05-02T23:58:00.956Z,13.33
